MST,Max TemperatureF,Mean TemperatureF,Min TemperatureF,Max Dew PointF,MeanDew PointF,Min DewpointF,Max Humidity, Mean Humidity, Min Humidity, Max Sea Level PressureIn, Mean Sea Level PressureIn, Min Sea Level PressureIn, Max VisibilityMiles, Mean VisibilityMiles, Min VisibilityMiles, Max Wind SpeedMPH, Mean Wind SpeedMPH, Max Gust SpeedMPH,PrecipitationIn, CloudCover, Events, WindDirDegrees
2011-11-1,50,43,36,33,30,23,76,56,36,30.32,30.10,29.89,10,10,10,21,10,26,T,7,Rain,336
2011-11-2,48,34,19,31,17,8,81,51,21,30.50,30.42,30.32,10,10,5,18,8,24,T,2,Rain,317
2011-11-3,57,37,16,22,16,7,84,49,13,30.36,30.14,29.89,10,10,10,25,9,31,0.00,0,,172
2011-11-4,61,48,34,30,27,23,64,46,27,29.87,29.75,29.61,10,10,10,21,12,24,0.00,0,,175
2011-11-5,65,50,35,34,29,25,70,50,30,29.58,29.39,29.21,10,10,10,33,11,40,0.00,1,,131
2011-11-6,51,36,21,26,19,12,68,47,26,30.09,29.80,29.52,10,10,10,33,14,40,0.00,3,,281
2011-11-7,49,32,15,20,15,9,80,51,21,30.26,30.19,30.12,10,10,10,10,4,13,0.00,2,,191
2011-11-8,52,37,21,23,18,14,77,53,28,30.31,30.20,30.12,10,10,10,14,4,17,0.00,2,,286
2011-11-9,49,34,18,21,14,9,81,50,19,30.46,30.39,30.32,10,10,10,26,12,33,0.00,0,,291
2011-11-10,56,33,10,20,14,6,84,52,20,30.36,30.10,29.77,10,10,10,13,5,17,0.00,0,,241
2011-11-11,66,48,29,17,13,11,51,31,11,29.81,29.68,29.47,10,10,10,16,9,22,0.00,0,,252
2011-11-12,62,45,27,25,16,13,50,33,15,29.44,29.32,29.24,10,10,10,17,6,22,0.00,1,,279
2011-11-13,56,43,29,33,23,16,92,57,22,29.52,29.42,29.27,10,10,9,24,10,31,T,3,Rain,278
2011-11-14,53,42,30,28,24,20,78,53,28,29.62,29.55,29.48,10,10,10,18,8,25,0.00,2,,282
2011-11-15,40,31,22,25,13,4,78,52,25,30.14,29.93,29.62,10,10,10,32,14,40,0.00,2,,285
2011-11-16,38,25,11,11,5,0,62,42,21,30.33,30.27,30.14,10,10,10,29,11,35,0.00,0,,282
2011-11-17,54,30,6,19,11,1,73,48,22,30.23,29.86,29.60,10,10,10,16,4,22,0.00,0,,135
2011-11-18,46,33,20,23,18,13,81,57,33,29.84,29.74,29.63,10,7,0,25,10,32,0.12,6,Fog-Snow,358
2011-11-19,22,8,-7,18,8,-12,84,79,74,30.33,30.04,29.77,10,3,0,21,7,24,0.30,7,Fog-Snow,6
2011-11-20,19,5,-10,12,-5,-17,96,84,71,30.31,30.20,30.03,10,6,0,7,3,8,0.00,4,Fog,278
2011-11-21,27,15,2,18,7,-1,88,81,73,30.22,30.13,30.07,10,10,4,9,3,12,0.00,0,,286
2011-11-22,45,26,7,32,20,4,85,67,49,30.13,30.06,29.99,10,10,10,14,7,16,0.00,0,,267
2011-11-23,60,44,28,33,29,24,85,60,35,30.07,29.96,29.79,10,10,10,18,8,25,0.00,0,,267
2011-11-24,71,54,37,35,30,25,70,46,22,29.78,29.70,29.64,10,10,10,18,6,24,0.00,0,,277
2011-11-25,60,47,33,33,30,26,75,57,39,29.98,29.69,29.60,10,10,10,32,12,43,0.00,2,,301
2011-11-26,45,33,20,24,13,5,67,44,20,30.51,30.36,30.02,10,10,10,44,23,56,0.00,0,,308
2011-11-27,57,39,20,22,17,10,71,41,10,30.44,30.21,29.94,10,10,10,14,6,15,0.00,0,,252
2011-11-28,60,42,23,31,25,18,81,56,30,30.41,30.19,29.91,10,10,10,22,9,26,0.00,0,,301
2011-11-29,61,39,21,28,20,15,82,62,29,30.41,30.21,29.95,10,10,10,14,5,,0.00,1,,239
2011-11-30,,,,,,,,,,30.26,29.96,29.80,10,8,1,14,5,23,0.03,4,,6